sensor_id;sensor_type;location;lat;lon;timestamp;temperature;humidity
32139;DHT22;18644;48.700;9.210;2023-09-07T00:00:44;17.20;57.50
32139;DHT22;18644;48.700;9.210;2023-09-07T00:03:12;17.20;57.70
32139;DHT22;18644;48.700;9.210;2023-09-07T00:05:40;17.10;57.80
32139;DHT22;18644;48.700;9.210;2023-09-07T00:08:06;17.10;57.90
32139;DHT22;18644;48.700;9.210;2023-09-07T00:10:35;17.10;58.10
32139;DHT22;18644;48.700;9.210;2023-09-07T00:13:02;17.10;58.10
32139;DHT22;18644;48.700;9.210;2023-09-07T00:15:35;17.10;58.00
32139;DHT22;18644;48.700;9.210;2023-09-07T00:18:03;17.00;58.10
32139;DHT22;18644;48.700;9.210;2023-09-07T00:20:30;17.00;58.00
32139;DHT22;18644;48.700;9.210;2023-09-07T00:22:58;17.00;58.00
32139;DHT22;18644;48.700;9.210;2023-09-07T00:25:26;17.00;58.00
32139;DHT22;18644;48.700;9.210;2023-09-07T00:27:54;17.00;58.10
32139;DHT22;18644;48.700;9.210;2023-09-07T00:30:21;16.90;58.00
32139;DHT22;18644;48.700;9.210;2023-09-07T00:32:48;16.90;58.10
32139;DHT22;18644;48.700;9.210;2023-09-07T00:35:15;16.90;58.10
32139;DHT22;18644;48.700;9.210;2023-09-07T00:37:42;16.80;58.10
32139;DHT22;18644;48.700;9.210;2023-09-07T00:40:09;16.80;58.10
32139;DHT22;18644;48.700;9.210;2023-09-07T00:42:37;16.80;58.30
32139;DHT22;18644;48.700;9.210;2023-09-07T00:45:06;16.80;58.30
32139;DHT22;18644;48.700;9.210;2023-09-07T00:47:34;16.70;58.40
32139;DHT22;18644;48.700;9.210;2023-09-07T00:50:01;16.70;58.40
32139;DHT22;18644;48.700;9.210;2023-09-07T00:52:30;16.70;58.50
32139;DHT22;18644;48.700;9.210;2023-09-07T00:54:57;16.70;58.70
32139;DHT22;18644;48.700;9.210;2023-09-07T00:57:24;16.60;58.90
32139;DHT22;18644;48.700;9.210;2023-09-07T00:59:52;16.60;59.00
32139;DHT22;18644;48.700;9.210;2023-09-07T01:02:20;16.60;59.30
32139;DHT22;18644;48.700;9.210;2023-09-07T01:04:47;16.60;59.50
32139;DHT22;18644;48.700;9.210;2023-09-07T01:07:17;16.60;59.40
32139;DHT22;18644;48.700;9.210;2023-09-07T01:09:52;16.60;59.40
32139;DHT22;18644;48.700;9.210;2023-09-07T01:12:21;16.60;59.30
32139;DHT22;18644;48.700;9.210;2023-09-07T01:14:48;16.60;59.20
32139;DHT22;18644;48.700;9.210;2023-09-07T01:17:15;16.60;59.20
32139;DHT22;18644;48.700;9.210;2023-09-07T01:19:45;16.50;59.10
32139;DHT22;18644;48.700;9.210;2023-09-07T01:22:14;16.50;59.00
32139;DHT22;18644;48.700;9.210;2023-09-07T01:24:42;16.50;59.00
32139;DHT22;18644;48.700;9.210;2023-09-07T01:27:10;16.50;59.00
32139;DHT22;18644;48.700;9.210;2023-09-07T01:29:38;16.50;59.10
32139;DHT22;18644;48.700;9.210;2023-09-07T01:32:06;16.40;59.00
32139;DHT22;18644;48.700;9.210;2023-09-07T01:34:35;16.40;59.10
32139;DHT22;18644;48.700;9.210;2023-09-07T01:37:02;16.40;59.20
32139;DHT22;18644;48.700;9.210;2023-09-07T01:39:30;16.40;59.20
32139;DHT22;18644;48.700;9.210;2023-09-07T01:41:57;16.30;59.10
32139;DHT22;18644;48.700;9.210;2023-09-07T01:44:24;16.30;59.10
32139;DHT22;18644;48.700;9.210;2023-09-07T01:46:52;16.30;59.20
32139;DHT22;18644;48.700;9.210;2023-09-07T01:49:19;16.30;59.30
32139;DHT22;18644;48.700;9.210;2023-09-07T01:51:46;16.20;59.50
32139;DHT22;18644;48.700;9.210;2023-09-07T01:54:13;16.20;59.50
32139;DHT22;18644;48.700;9.210;2023-09-07T01:56:41;16.20;59.60
32139;DHT22;18644;48.700;9.210;2023-09-07T01:59:08;16.10;59.50
32139;DHT22;18644;48.700;9.210;2023-09-07T02:01:35;16.10;59.60
32139;DHT22;18644;48.700;9.210;2023-09-07T02:04:03;16.10;59.60
32139;DHT22;18644;48.700;9.210;2023-09-07T02:06:30;16.10;59.70
32139;DHT22;18644;48.700;9.210;2023-09-07T02:08:57;16.00;59.60
32139;DHT22;18644;48.700;9.210;2023-09-07T02:11:24;16.00;59.70
32139;DHT22;18644;48.700;9.210;2023-09-07T02:13:52;16.00;59.70
32139;DHT22;18644;48.700;9.210;2023-09-07T02:16:19;16.00;59.60
32139;DHT22;18644;48.700;9.210;2023-09-07T02:18:49;15.90;59.50
32139;DHT22;18644;48.700;9.210;2023-09-07T02:21:16;15.90;59.60
32139;DHT22;18644;48.700;9.210;2023-09-07T02:23:43;15.80;59.50
32139;DHT22;18644;48.700;9.210;2023-09-07T02:26:10;15.80;59.60
32139;DHT22;18644;48.700;9.210;2023-09-07T02:28:37;15.80;59.60
32139;DHT22;18644;48.700;9.210;2023-09-07T02:31:06;15.80;59.60
32139;DHT22;18644;48.700;9.210;2023-09-07T02:33:33;15.70;59.60
32139;DHT22;18644;48.700;9.210;2023-09-07T02:36:00;15.70;59.60
32139;DHT22;18644;48.700;9.210;2023-09-07T02:38:28;15.70;59.60
32139;DHT22;18644;48.700;9.210;2023-09-07T02:40:56;15.70;59.70
32139;DHT22;18644;48.700;9.210;2023-09-07T02:43:24;15.60;59.70
32139;DHT22;18644;48.700;9.210;2023-09-07T02:45:51;15.60;59.80
32139;DHT22;18644;48.700;9.210;2023-09-07T02:48:19;15.60;59.80
32139;DHT22;18644;48.700;9.210;2023-09-07T02:50:48;15.50;59.90
32139;DHT22;18644;48.700;9.210;2023-09-07T02:53:16;15.50;59.90
32139;DHT22;18644;48.700;9.210;2023-09-07T02:55:43;15.50;59.90
32139;DHT22;18644;48.700;9.210;2023-09-07T02:58:10;15.50;60.70
32139;DHT22;18644;48.700;9.210;2023-09-07T03:00:41;15.40;59.90
32139;DHT22;18644;48.700;9.210;2023-09-07T03:03:09;15.40;60.10
32139;DHT22;18644;48.700;9.210;2023-09-07T03:05:39;15.40;60.10
32139;DHT22;18644;48.700;9.210;2023-09-07T03:08:06;15.40;60.20
32139;DHT22;18644;48.700;9.210;2023-09-07T03:10:33;15.40;60.30
32139;DHT22;18644;48.700;9.210;2023-09-07T03:13:01;15.30;60.30
32139;DHT22;18644;48.700;9.210;2023-09-07T03:15:29;15.30;60.40
32139;DHT22;18644;48.700;9.210;2023-09-07T03:17:56;15.30;60.40
32139;DHT22;18644;48.700;9.210;2023-09-07T03:20:22;15.30;60.60
32139;DHT22;18644;48.700;9.210;2023-09-07T03:22:51;15.30;60.40
32139;DHT22;18644;48.700;9.210;2023-09-07T03:25:18;15.20;60.20
32139;DHT22;18644;48.700;9.210;2023-09-07T03:27:45;15.20;60.10
32139;DHT22;18644;48.700;9.210;2023-09-07T03:30:12;15.20;60.10
32139;DHT22;18644;48.700;9.210;2023-09-07T03:32:39;15.10;60.00
32139;DHT22;18644;48.700;9.210;2023-09-07T03:35:06;15.10;59.90
32139;DHT22;18644;48.700;9.210;2023-09-07T03:37:35;15.00;59.90
32139;DHT22;18644;48.700;9.210;2023-09-07T03:40:05;15.00;59.90
32139;DHT22;18644;48.700;9.210;2023-09-07T03:42:34;15.00;59.90
32139;DHT22;18644;48.700;9.210;2023-09-07T03:45:02;14.90;59.80
32139;DHT22;18644;48.700;9.210;2023-09-07T03:47:29;14.90;59.90
32139;DHT22;18644;48.700;9.210;2023-09-07T03:49:56;14.80;60.00
32139;DHT22;18644;48.700;9.210;2023-09-07T03:52:24;14.80;60.10
32139;DHT22;18644;48.700;9.210;2023-09-07T03:54:53;14.80;60.20
32139;DHT22;18644;48.700;9.210;2023-09-07T03:57:22;14.70;60.30
32139;DHT22;18644;48.700;9.210;2023-09-07T03:59:49;14.70;60.50
32139;DHT22;18644;48.700;9.210;2023-09-07T04:02:16;14.70;60.60
32139;DHT22;18644;48.700;9.210;2023-09-07T04:04:47;14.70;60.70
32139;DHT22;18644;48.700;9.210;2023-09-07T04:07:15;14.70;60.80
32139;DHT22;18644;48.700;9.210;2023-09-07T04:09:42;14.60;60.80
32139;DHT22;18644;48.700;9.210;2023-09-07T04:12:10;14.60;61.90
32139;DHT22;18644;48.700;9.210;2023-09-07T04:14:39;14.60;61.30
32139;DHT22;18644;48.700;9.210;2023-09-07T04:17:07;14.60;61.30
32139;DHT22;18644;48.700;9.210;2023-09-07T04:19:34;14.60;61.20
32139;DHT22;18644;48.700;9.210;2023-09-07T04:22:01;14.50;61.10
32139;DHT22;18644;48.700;9.210;2023-09-07T04:24:28;14.50;61.10
32139;DHT22;18644;48.700;9.210;2023-09-07T04:26:58;14.50;61.10
32139;DHT22;18644;48.700;9.210;2023-09-07T04:29:26;14.50;61.20
32139;DHT22;18644;48.700;9.210;2023-09-07T04:31:55;14.50;61.20
32139;DHT22;18644;48.700;9.210;2023-09-07T04:34:21;14.40;61.20
32139;DHT22;18644;48.700;9.210;2023-09-07T04:36:49;14.40;61.50
32139;DHT22;18644;48.700;9.210;2023-09-07T04:39:16;14.40;61.70
32139;DHT22;18644;48.700;9.210;2023-09-07T04:41:43;14.40;61.70
32139;DHT22;18644;48.700;9.210;2023-09-07T04:44:10;14.40;61.70
32139;DHT22;18644;48.700;9.210;2023-09-07T04:46:37;14.40;61.60
32139;DHT22;18644;48.700;9.210;2023-09-07T04:49:05;14.30;61.50
32139;DHT22;18644;48.700;9.210;2023-09-07T04:51:33;14.30;61.50
32139;DHT22;18644;48.700;9.210;2023-09-07T04:54:00;14.30;61.60
32139;DHT22;18644;48.700;9.210;2023-09-07T04:56:27;14.30;61.60
32139;DHT22;18644;48.700;9.210;2023-09-07T04:58:54;14.30;61.70
32139;DHT22;18644;48.700;9.210;2023-09-07T05:01:21;14.20;61.70
32139;DHT22;18644;48.700;9.210;2023-09-07T05:03:48;14.20;61.80
32139;DHT22;18644;48.700;9.210;2023-09-07T05:06:17;14.20;61.80
32139;DHT22;18644;48.700;9.210;2023-09-07T05:08:44;14.20;61.80
32139;DHT22;18644;48.700;9.210;2023-09-07T05:11:11;14.20;61.90
32139;DHT22;18644;48.700;9.210;2023-09-07T05:13:38;14.20;62.10
32139;DHT22;18644;48.700;9.210;2023-09-07T05:16:05;14.20;62.20
32139;DHT22;18644;48.700;9.210;2023-09-07T05:18:32;14.20;62.30
32139;DHT22;18644;48.700;9.210;2023-09-07T05:20:59;14.20;62.40
32139;DHT22;18644;48.700;9.210;2023-09-07T05:23:27;14.20;62.40
32139;DHT22;18644;48.700;9.210;2023-09-07T05:25:55;14.10;62.50
32139;DHT22;18644;48.700;9.210;2023-09-07T05:28:23;14.20;62.60
32139;DHT22;18644;48.700;9.210;2023-09-07T05:30:50;14.20;62.90
32139;DHT22;18644;48.700;9.210;2023-09-07T05:33:17;14.20;62.80
32139;DHT22;18644;48.700;9.210;2023-09-07T05:35:44;14.20;63.00
32139;DHT22;18644;48.700;9.210;2023-09-07T05:38:12;14.20;63.30
32139;DHT22;18644;48.700;9.210;2023-09-07T05:40:42;14.30;63.70
32139;DHT22;18644;48.700;9.210;2023-09-07T05:43:10;14.30;63.80
32139;DHT22;18644;48.700;9.210;2023-09-07T05:45:39;14.40;64.00
32139;DHT22;18644;48.700;9.210;2023-09-07T05:48:07;14.40;64.40
32139;DHT22;18644;48.700;9.210;2023-09-07T05:50:35;14.50;64.80
32139;DHT22;18644;48.700;9.210;2023-09-07T05:53:04;14.50;65.00
32139;DHT22;18644;48.700;9.210;2023-09-07T05:55:31;14.60;65.30
32139;DHT22;18644;48.700;9.210;2023-09-07T05:57:59;14.60;65.60
32139;DHT22;18644;48.700;9.210;2023-09-07T06:00:30;14.70;66.00
32139;DHT22;18644;48.700;9.210;2023-09-07T06:02:57;14.80;66.90
32139;DHT22;18644;48.700;9.210;2023-09-07T06:05:24;14.90;65.60
32139;DHT22;18644;48.700;9.210;2023-09-07T06:07:51;15.00;66.10
32139;DHT22;18644;48.700;9.210;2023-09-07T06:10:17;15.10;66.50
32139;DHT22;18644;48.700;9.210;2023-09-07T06:12:44;15.10;66.70
32139;DHT22;18644;48.700;9.210;2023-09-07T06:15:13;15.20;66.80
32139;DHT22;18644;48.700;9.210;2023-09-07T06:17:40;15.30;67.00
32139;DHT22;18644;48.700;9.210;2023-09-07T06:20:08;15.40;67.10
32139;DHT22;18644;48.700;9.210;2023-09-07T06:22:35;15.50;68.00
32139;DHT22;18644;48.700;9.210;2023-09-07T06:25:02;15.70;67.50
32139;DHT22;18644;48.700;9.210;2023-09-07T06:27:30;15.80;67.60
32139;DHT22;18644;48.700;9.210;2023-09-07T06:29:56;15.90;67.60
32139;DHT22;18644;48.700;9.210;2023-09-07T06:32:25;16.00;67.70
32139;DHT22;18644;48.700;9.210;2023-09-07T06:34:51;16.20;67.90
32139;DHT22;18644;48.700;9.210;2023-09-07T06:37:18;16.30;68.00
32139;DHT22;18644;48.700;9.210;2023-09-07T06:39:45;16.50;68.00
32139;DHT22;18644;48.700;9.210;2023-09-07T06:42:12;16.60;67.90
32139;DHT22;18644;48.700;9.210;2023-09-07T06:44:41;16.80;67.90
32139;DHT22;18644;48.700;9.210;2023-09-07T06:47:08;16.90;67.90
32139;DHT22;18644;48.700;9.210;2023-09-07T06:49:37;17.10;68.00
32139;DHT22;18644;48.700;9.210;2023-09-07T06:52:04;17.20;68.00
32139;DHT22;18644;48.700;9.210;2023-09-07T06:54:31;17.40;67.90
32139;DHT22;18644;48.700;9.210;2023-09-07T06:56:58;17.50;67.80
32139;DHT22;18644;48.700;9.210;2023-09-07T06:59:25;17.70;67.80
32139;DHT22;18644;48.700;9.210;2023-09-07T07:01:52;17.80;67.70
32139;DHT22;18644;48.700;9.210;2023-09-07T07:04:19;18.00;67.60
32139;DHT22;18644;48.700;9.210;2023-09-07T07:06:47;18.10;67.80
32139;DHT22;18644;48.700;9.210;2023-09-07T07:09:14;18.30;67.70
32139;DHT22;18644;48.700;9.210;2023-09-07T07:11:42;18.40;67.50
32139;DHT22;18644;48.700;9.210;2023-09-07T07:14:09;18.60;67.60
32139;DHT22;18644;48.700;9.210;2023-09-07T07:16:37;18.70;67.20
32139;DHT22;18644;48.700;9.210;2023-09-07T07:19:04;18.80;67.10
32139;DHT22;18644;48.700;9.210;2023-09-07T07:21:31;19.00;66.90
32139;DHT22;18644;48.700;9.210;2023-09-07T07:23:59;19.10;66.70
32139;DHT22;18644;48.700;9.210;2023-09-07T07:26:26;19.20;66.80
32139;DHT22;18644;48.700;9.210;2023-09-07T07:28:53;19.30;66.50
32139;DHT22;18644;48.700;9.210;2023-09-07T07:31:20;19.40;66.20
32139;DHT22;18644;48.700;9.210;2023-09-07T07:33:47;19.50;66.10
32139;DHT22;18644;48.700;9.210;2023-09-07T07:36:14;19.70;66.00
32139;DHT22;18644;48.700;9.210;2023-09-07T07:38:41;19.80;65.80
32139;DHT22;18644;48.700;9.210;2023-09-07T07:41:10;19.90;65.50
32139;DHT22;18644;48.700;9.210;2023-09-07T07:43:36;20.00;65.30
32139;DHT22;18644;48.700;9.210;2023-09-07T07:46:03;20.20;65.20
32139;DHT22;18644;48.700;9.210;2023-09-07T07:48:30;20.30;64.90
32139;DHT22;18644;48.700;9.210;2023-09-07T07:51:03;20.40;64.60
32139;DHT22;18644;48.700;9.210;2023-09-07T07:53:30;20.50;64.70
32139;DHT22;18644;48.700;9.210;2023-09-07T07:55:57;20.60;64.40
32139;DHT22;18644;48.700;9.210;2023-09-07T07:58:26;20.70;64.30
32139;DHT22;18644;48.700;9.210;2023-09-07T08:00:52;20.90;64.60
32139;DHT22;18644;48.700;9.210;2023-09-07T08:03:23;21.00;64.20
32139;DHT22;18644;48.700;9.210;2023-09-07T08:05:50;21.20;64.00
32139;DHT22;18644;48.700;9.210;2023-09-07T08:08:17;21.30;63.70
32139;DHT22;18644;48.700;9.210;2023-09-07T08:10:44;21.40;63.30
32139;DHT22;18644;48.700;9.210;2023-09-07T08:13:12;21.50;63.00
32139;DHT22;18644;48.700;9.210;2023-09-07T08:15:40;21.60;62.80
32139;DHT22;18644;48.700;9.210;2023-09-07T08:18:08;21.70;62.60
32139;DHT22;18644;48.700;9.210;2023-09-07T08:20:35;21.90;62.40
32139;DHT22;18644;48.700;9.210;2023-09-07T08:23:05;22.00;62.20
32139;DHT22;18644;48.700;9.210;2023-09-07T08:25:34;22.10;62.20
32139;DHT22;18644;48.700;9.210;2023-09-07T08:28:01;22.20;61.70
32139;DHT22;18644;48.700;9.210;2023-09-07T08:30:30;22.40;61.20
32139;DHT22;18644;48.700;9.210;2023-09-07T08:32:59;22.50;60.80
32139;DHT22;18644;48.700;9.210;2023-09-07T08:35:27;22.60;60.70
32139;DHT22;18644;48.700;9.210;2023-09-07T08:37:54;22.70;60.50
32139;DHT22;18644;48.700;9.210;2023-09-07T08:40:23;22.80;60.20
32139;DHT22;18644;48.700;9.210;2023-09-07T08:42:53;23.00;60.10
32139;DHT22;18644;48.700;9.210;2023-09-07T08:45:21;23.10;60.10
32139;DHT22;18644;48.700;9.210;2023-09-07T08:47:49;23.30;60.20
32139;DHT22;18644;48.700;9.210;2023-09-07T08:50:18;23.40;59.90
32139;DHT22;18644;48.700;9.210;2023-09-07T08:52:49;23.50;59.50
32139;DHT22;18644;48.700;9.210;2023-09-07T08:55:19;23.70;59.30
32139;DHT22;18644;48.700;9.210;2023-09-07T08:57:46;23.80;59.10
32139;DHT22;18644;48.700;9.210;2023-09-07T09:00:14;24.00;58.60
32139;DHT22;18644;48.700;9.210;2023-09-07T09:02:42;24.10;58.60
32139;DHT22;18644;48.700;9.210;2023-09-07T09:05:09;24.20;58.90
32139;DHT22;18644;48.700;9.210;2023-09-07T09:07:38;24.30;59.20
32139;DHT22;18644;48.700;9.210;2023-09-07T09:10:06;24.50;58.10
32139;DHT22;18644;48.700;9.210;2023-09-07T09:12:34;24.60;57.90
32139;DHT22;18644;48.700;9.210;2023-09-07T09:15:01;24.80;57.90
32139;DHT22;18644;48.700;9.210;2023-09-07T09:17:29;24.90;57.60
32139;DHT22;18644;48.700;9.210;2023-09-07T09:19:56;25.00;57.40
32139;DHT22;18644;48.700;9.210;2023-09-07T09:22:23;25.20;57.00
32139;DHT22;18644;48.700;9.210;2023-09-07T09:24:51;25.20;56.40
32139;DHT22;18644;48.700;9.210;2023-09-07T09:27:18;25.40;56.40
32139;DHT22;18644;48.700;9.210;2023-09-07T09:29:45;25.50;56.20
32139;DHT22;18644;48.700;9.210;2023-09-07T09:32:14;25.60;56.10
32139;DHT22;18644;48.700;9.210;2023-09-07T09:34:43;25.70;56.20
32139;DHT22;18644;48.700;9.210;2023-09-07T09:37:13;25.80;56.10
32139;DHT22;18644;48.700;9.210;2023-09-07T09:39:41;25.90;56.10
32139;DHT22;18644;48.700;9.210;2023-09-07T09:42:10;26.10;55.80
32139;DHT22;18644;48.700;9.210;2023-09-07T09:44:39;26.10;55.30
32139;DHT22;18644;48.700;9.210;2023-09-07T09:47:08;26.30;55.30
32139;DHT22;18644;48.700;9.210;2023-09-07T09:49:35;26.40;55.40
32139;DHT22;18644;48.700;9.210;2023-09-07T09:52:04;26.50;55.50
32139;DHT22;18644;48.700;9.210;2023-09-07T09:54:34;26.60;55.60
32139;DHT22;18644;48.700;9.210;2023-09-07T09:57:01;26.80;55.70
32139;DHT22;18644;48.700;9.210;2023-09-07T09:59:30;26.90;55.20
32139;DHT22;18644;48.700;9.210;2023-09-07T10:01:57;27.00;55.10
32139;DHT22;18644;48.700;9.210;2023-09-07T10:04:26;27.10;54.40
32139;DHT22;18644;48.700;9.210;2023-09-07T10:06:55;27.20;54.00
32139;DHT22;18644;48.700;9.210;2023-09-07T10:09:29;27.40;54.60
32139;DHT22;18644;48.700;9.210;2023-09-07T10:11:58;27.40;54.70
32139;DHT22;18644;48.700;9.210;2023-09-07T10:14:37;27.60;54.60
32139;DHT22;18644;48.700;9.210;2023-09-07T10:17:06;27.70;54.10
32139;DHT22;18644;48.700;9.210;2023-09-07T10:19:35;27.80;54.00
32139;DHT22;18644;48.700;9.210;2023-09-07T10:22:04;27.90;54.00
32139;DHT22;18644;48.700;9.210;2023-09-07T10:24:32;28.00;54.00
32139;DHT22;18644;48.700;9.210;2023-09-07T10:27:02;28.10;53.90
32139;DHT22;18644;48.700;9.210;2023-09-07T10:29:42;28.30;53.80
32139;DHT22;18644;48.700;9.210;2023-09-07T10:32:09;28.40;53.10
32139;DHT22;18644;48.700;9.210;2023-09-07T10:34:38;28.50;53.40
32139;DHT22;18644;48.700;9.210;2023-09-07T10:37:09;28.70;53.10
32139;DHT22;18644;48.700;9.210;2023-09-07T10:39:38;28.80;53.10
32139;DHT22;18644;48.700;9.210;2023-09-07T10:42:08;28.90;52.80
32139;DHT22;18644;48.700;9.210;2023-09-07T10:44:35;29.00;52.80
32139;DHT22;18644;48.700;9.210;2023-09-07T10:47:04;29.10;52.70
32139;DHT22;18644;48.700;9.210;2023-09-07T10:49:30;29.20;52.50
32139;DHT22;18644;48.700;9.210;2023-09-07T10:51:57;29.30;52.10
32139;DHT22;18644;48.700;9.210;2023-09-07T10:54:24;29.50;52.50
32139;DHT22;18644;48.700;9.210;2023-09-07T10:56:51;29.60;52.50
32139;DHT22;18644;48.700;9.210;2023-09-07T10:59:22;29.70;52.40
32139;DHT22;18644;48.700;9.210;2023-09-07T11:01:49;29.80;52.00
32139;DHT22;18644;48.700;9.210;2023-09-07T11:04:18;29.90;51.80
32139;DHT22;18644;48.700;9.210;2023-09-07T11:06:46;30.10;51.50
32139;DHT22;18644;48.700;9.210;2023-09-07T11:09:13;30.20;51.40
32139;DHT22;18644;48.700;9.210;2023-09-07T11:11:46;30.30;51.10
32139;DHT22;18644;48.700;9.210;2023-09-07T11:14:13;30.40;50.30
32139;DHT22;18644;48.700;9.210;2023-09-07T11:16:40;30.50;50.40
32139;DHT22;18644;48.700;9.210;2023-09-07T11:19:08;30.60;50.30
32139;DHT22;18644;48.700;9.210;2023-09-07T11:21:37;30.80;50.10
32139;DHT22;18644;48.700;9.210;2023-09-07T11:24:04;30.80;49.70
32139;DHT22;18644;48.700;9.210;2023-09-07T11:26:41;30.90;49.70
32139;DHT22;18644;48.700;9.210;2023-09-07T11:29:08;31.00;50.40
32139;DHT22;18644;48.700;9.210;2023-09-07T11:31:35;31.20;50.10
32139;DHT22;18644;48.700;9.210;2023-09-07T11:34:02;31.30;49.50
32139;DHT22;18644;48.700;9.210;2023-09-07T11:36:29;31.40;49.80
32139;DHT22;18644;48.700;9.210;2023-09-07T11:38:58;31.50;48.90
32139;DHT22;18644;48.700;9.210;2023-09-07T11:41:24;31.60;47.90
32139;DHT22;18644;48.700;9.210;2023-09-07T11:43:51;31.70;48.00
32139;DHT22;18644;48.700;9.210;2023-09-07T11:46:18;31.70;47.80
32139;DHT22;18644;48.700;9.210;2023-09-07T11:48:45;31.80;47.70
32139;DHT22;18644;48.700;9.210;2023-09-07T11:51:12;31.90;47.80
32139;DHT22;18644;48.700;9.210;2023-09-07T11:53:39;32.00;47.80
32139;DHT22;18644;48.700;9.210;2023-09-07T11:56:07;32.00;47.60
32139;DHT22;18644;48.700;9.210;2023-09-07T11:58:34;32.20;47.00
32139;DHT22;18644;48.700;9.210;2023-09-07T12:01:02;32.20;46.60
32139;DHT22;18644;48.700;9.210;2023-09-07T12:03:29;32.30;46.10
32139;DHT22;18644;48.700;9.210;2023-09-07T12:05:58;32.40;46.20
32139;DHT22;18644;48.700;9.210;2023-09-07T12:08:25;32.40;46.00
32139;DHT22;18644;48.700;9.210;2023-09-07T12:10:52;32.50;45.90
32139;DHT22;18644;48.700;9.210;2023-09-07T12:13:20;32.60;46.00
32139;DHT22;18644;48.700;9.210;2023-09-07T12:15:47;32.60;46.20
32139;DHT22;18644;48.700;9.210;2023-09-07T12:18:14;32.70;46.20
32139;DHT22;18644;48.700;9.210;2023-09-07T12:20:41;32.80;46.00
32139;DHT22;18644;48.700;9.210;2023-09-07T12:23:10;32.90;45.80
32139;DHT22;18644;48.700;9.210;2023-09-07T12:25:37;33.00;45.10
32139;DHT22;18644;48.700;9.210;2023-09-07T12:28:04;33.10;44.80
32139;DHT22;18644;48.700;9.210;2023-09-07T12:30:32;33.20;44.10
32139;DHT22;18644;48.700;9.210;2023-09-07T12:32:59;33.20;43.40
32139;DHT22;18644;48.700;9.210;2023-09-07T12:35:26;33.30;43.50
32139;DHT22;18644;48.700;9.210;2023-09-07T12:37:53;33.40;43.70
32139;DHT22;18644;48.700;9.210;2023-09-07T12:40:20;33.50;43.50
32139;DHT22;18644;48.700;9.210;2023-09-07T12:42:48;33.50;43.30
32139;DHT22;18644;48.700;9.210;2023-09-07T12:45:14;33.60;43.20
32139;DHT22;18644;48.700;9.210;2023-09-07T12:47:43;33.60;43.40
32139;DHT22;18644;48.700;9.210;2023-09-07T12:50:10;33.70;43.10
32139;DHT22;18644;48.700;9.210;2023-09-07T12:52:37;33.70;42.80
32139;DHT22;18644;48.700;9.210;2023-09-07T12:55:05;33.80;42.90
32139;DHT22;18644;48.700;9.210;2023-09-07T12:57:33;33.90;42.60
32139;DHT22;18644;48.700;9.210;2023-09-07T13:00:00;33.90;42.50
32139;DHT22;18644;48.700;9.210;2023-09-07T13:02:27;34.00;42.60
32139;DHT22;18644;48.700;9.210;2023-09-07T13:04:55;34.00;42.90
32139;DHT22;18644;48.700;9.210;2023-09-07T13:07:22;34.00;42.70
32139;DHT22;18644;48.700;9.210;2023-09-07T13:09:49;34.10;42.80
32139;DHT22;18644;48.700;9.210;2023-09-07T13:12:16;34.20;42.80
32139;DHT22;18644;48.700;9.210;2023-09-07T13:14:43;34.30;42.60
32139;DHT22;18644;48.700;9.210;2023-09-07T13:17:13;34.40;42.60
32139;DHT22;18644;48.700;9.210;2023-09-07T13:19:40;34.50;42.20
32139;DHT22;18644;48.700;9.210;2023-09-07T13:22:09;34.50;41.90
32139;DHT22;18644;48.700;9.210;2023-09-07T13:24:36;34.60;41.50
32139;DHT22;18644;48.700;9.210;2023-09-07T13:27:03;34.60;41.80
32139;DHT22;18644;48.700;9.210;2023-09-07T13:29:31;34.70;41.40
32139;DHT22;18644;48.700;9.210;2023-09-07T13:31:58;34.80;41.80
32139;DHT22;18644;48.700;9.210;2023-09-07T13:34:25;34.80;41.30
32139;DHT22;18644;48.700;9.210;2023-09-07T13:36:53;34.90;41.10
32139;DHT22;18644;48.700;9.210;2023-09-07T13:39:22;35.00;41.50
32139;DHT22;18644;48.700;9.210;2023-09-07T13:41:50;35.00;41.50
32139;DHT22;18644;48.700;9.210;2023-09-07T13:44:17;35.10;41.30
32139;DHT22;18644;48.700;9.210;2023-09-07T13:46:44;35.20;41.20
32139;DHT22;18644;48.700;9.210;2023-09-07T13:49:11;35.20;41.10
32139;DHT22;18644;48.700;9.210;2023-09-07T13:51:40;35.30;40.40
32139;DHT22;18644;48.700;9.210;2023-09-07T13:54:08;35.40;40.60
32139;DHT22;18644;48.700;9.210;2023-09-07T13:56:36;35.40;40.30
32139;DHT22;18644;48.700;9.210;2023-09-07T13:59:04;35.50;40.30
32139;DHT22;18644;48.700;9.210;2023-09-07T14:01:31;35.50;39.50
32139;DHT22;18644;48.700;9.210;2023-09-07T14:03:58;35.60;39.30
32139;DHT22;18644;48.700;9.210;2023-09-07T14:06:25;35.60;39.20
32139;DHT22;18644;48.700;9.210;2023-09-07T14:08:52;35.60;39.50
32139;DHT22;18644;48.700;9.210;2023-09-07T14:11:19;35.60;39.60
32139;DHT22;18644;48.700;9.210;2023-09-07T14:13:48;35.70;40.30
32139;DHT22;18644;48.700;9.210;2023-09-07T14:16:17;35.70;40.50
32139;DHT22;18644;48.700;9.210;2023-09-07T14:18:45;35.80;41.00
32139;DHT22;18644;48.700;9.210;2023-09-07T14:21:14;35.90;40.10
32139;DHT22;18644;48.700;9.210;2023-09-07T14:23:42;35.90;40.10
32139;DHT22;18644;48.700;9.210;2023-09-07T14:26:09;36.00;39.50
32139;DHT22;18644;48.700;9.210;2023-09-07T14:28:36;36.10;39.10
32139;DHT22;18644;48.700;9.210;2023-09-07T14:31:05;36.10;39.00
32139;DHT22;18644;48.700;9.210;2023-09-07T14:33:33;36.10;38.40
32139;DHT22;18644;48.700;9.210;2023-09-07T14:36:02;36.20;38.30
32139;DHT22;18644;48.700;9.210;2023-09-07T14:38:29;36.10;38.20
32139;DHT22;18644;48.700;9.210;2023-09-07T14:41:00;36.20;38.00
32139;DHT22;18644;48.700;9.210;2023-09-07T14:43:27;36.20;37.40
32139;DHT22;18644;48.700;9.210;2023-09-07T14:45:54;36.20;36.80
32139;DHT22;18644;48.700;9.210;2023-09-07T14:48:22;36.20;36.80
32139;DHT22;18644;48.700;9.210;2023-09-07T14:50:50;36.10;35.50
32139;DHT22;18644;48.700;9.210;2023-09-07T14:53:17;36.10;36.10
32139;DHT22;18644;48.700;9.210;2023-09-07T14:55:44;36.10;36.40
32139;DHT22;18644;48.700;9.210;2023-09-07T14:58:11;36.00;36.50
32139;DHT22;18644;48.700;9.210;2023-09-07T15:00:38;36.00;36.00
32139;DHT22;18644;48.700;9.210;2023-09-07T15:03:05;36.10;35.90
32139;DHT22;18644;48.700;9.210;2023-09-07T15:05:33;36.00;35.70
32139;DHT22;18644;48.700;9.210;2023-09-07T15:08:00;36.00;35.70
32139;DHT22;18644;48.700;9.210;2023-09-07T15:10:29;36.00;35.60
32139;DHT22;18644;48.700;9.210;2023-09-07T15:12:59;36.00;35.90
32139;DHT22;18644;48.700;9.210;2023-09-07T15:15:28;36.00;35.30
32139;DHT22;18644;48.700;9.210;2023-09-07T15:17:57;36.00;35.00
32139;DHT22;18644;48.700;9.210;2023-09-07T15:20:23;36.00;34.70
32139;DHT22;18644;48.700;9.210;2023-09-07T15:22:52;36.00;34.90
32139;DHT22;18644;48.700;9.210;2023-09-07T15:25:19;36.00;35.00
32139;DHT22;18644;48.700;9.210;2023-09-07T15:27:46;36.00;35.30
32139;DHT22;18644;48.700;9.210;2023-09-07T15:30:13;36.00;35.70
32139;DHT22;18644;48.700;9.210;2023-09-07T15:32:41;36.00;35.10